Time;durP1;ratioP1;P1;durP2;ratioP2;P2;SDS_P1;SDS_P2;PMS_P1;PMS_P2;Temp;Humidity;BMP_temperature;BMP_pressure;BME280_temperature;BME280_humidity;BME280_pressure;Samples;Min_cycle;Max_cycle;Signal;HPM_P1;HPM_P2
2023/06/08 00:01:58;;;;;;;;;;;;;;;;;;6252625;22;19955;-90
2023/06/08 00:04:33;;;;;;;;;;;;;;;;;;6227040;22;19977;-91
2023/06/08 00:06:59;;;;;;;;;;;;;;;;;;6252380;22;20012;-91
2023/06/08 00:09:25;;;;;;;;;;;;;;;;;;6224602;22;19915;-91
2023/06/08 00:11:52;;;;;;;;;;;;;;;;;;6224918;22;19927;-91
2023/06/08 00:14:18;;;;;;;;;;;;;;;;;;6249948;22;19985;-90
2023/06/08 00:16:44;;;;;;;;;;;;;;;;;;6224985;22;19919;-90
2023/06/08 00:19:10;;;;;;;;;;;;;;;;;;6249538;22;20190;-91
2023/06/08 00:21:37;;;;;;;;;;;;;;;;;;6250117;22;19915;-90
2023/06/08 00:24:02;;;;;;;;;;;;;;;;;;6249134;22;19922;-90
2023/06/08 00:26:28;;;;;;;;;;;;;;;;;;6224351;22;20317;-90
2023/06/08 00:28:54;;;;;;;;;;;;;;;;;;6249542;22;20197;-92
2023/06/08 00:31:20;;;;;;;;;;;;;;;;;;6223268;22;19923;-91
2023/06/08 00:33:46;;;;;;;;;;;;;;;;;;6225318;22;19915;-91
2023/06/08 00:36:12;;;;;;;;;;;;;;;;;;6249952;22;20317;-93
2023/06/08 00:38:38;;;;;;;;;;;;;;;;;;6225012;22;20064;-90
2023/06/08 00:41:04;;;;;;;;;;;;;;;;;;6249701;22;20333;-91
2023/06/08 00:43:30;;;;;;;;;;;;;;;;;;6250005;22;19922;-91
2023/06/08 00:45:56;;;;;;;;;;;;;;;;;;6249963;22;19939;-91
2023/06/08 00:48:22;;;;;;;;;;;;;;;;;;6224701;22;19915;-91
2023/06/08 00:50:50;;;;;;;;;;;;;;;;;;6250035;22;19977;-91
2023/06/08 00:53:16;;;;;;;;;;;;;;;;;;6250253;22;19954;-91
2023/06/08 00:55:43;;;;;;;;;;;;;;;;;;6224780;22;20252;-91
2023/06/08 00:58:13;;;;;;;;;;;;;;;;;;6249830;22;20356;-91
2023/06/08 01:00:39;;;;;;;;;;;;;;;;;;6249136;22;20325;-91
2023/06/08 01:03:06;;;;;;;;;;;;;;;;;;6249490;22;19915;-89
2023/06/08 01:05:32;;;;;;;;;;;;;;;;;;6249654;22;19966;-90
2023/06/08 01:07:59;;;;;;;;;;;;;;;;;;6249553;22;20231;-90
2023/06/08 01:10:25;;;;;;;;;;;;;;;;;;6223985;22;19927;-90
2023/06/08 01:12:52;;;;;;;;;;;;;;;;;;6249746;22;20067;-90
2023/06/08 01:15:18;;;;;;;;;;;;;;;;;;6249691;22;20237;-90
2023/06/08 01:17:45;;;;;;;;;;;;;;;;;;6224206;22;19916;-90
2023/06/08 01:20:10;;;;;;;;;;;;;;;;;;6249281;22;19954;-89
2023/06/08 01:22:36;;;;;;;;;;;;;;;;;;6224215;22;19915;-90
2023/06/08 01:25:02;;;;;;;;;;;;;;;;;;6249458;22;19938;-90
2023/06/08 01:27:36;;;;;;;;;;;;;;;;;;6223989;22;20252;-90
2023/06/08 01:30:02;;;;;;;;;;;;;;;;;;6249192;22;19919;-90
2023/06/08 01:32:31;;;;;;;;;;;;;;;;;;6249510;22;19919;-90
2023/06/08 01:34:57;;;;;;;;;;;;;;;;;;6249264;22;19922;-90
2023/06/08 01:37:23;;;;;;;;;;;;;;;;;;6248797;22;19968;-90
2023/06/08 01:39:49;;;;;;;;;;;;;;;;;;6249142;22;19927;-91
2023/06/08 01:42:15;;;;;;;;;;;;;;;;;;6248837;22;19923;-90
2023/06/08 01:44:41;;;;;;;;;;;;;;;;;;6248894;22;19919;-90
2023/06/08 01:47:07;;;;;;;;;;;;;;;;;;6249072;22;19969;-89
2023/06/08 01:49:33;;;;;;;;;;;;;;;;;;6248745;22;19915;-89
2023/06/08 01:51:59;;;;;;;;;;;;;;;;;;6248917;22;19930;-89
2023/06/08 01:54:25;;;;;;;;;;;;;;;;;;6248972;22;20328;-88
2023/06/08 01:56:51;;;;;;;;;;;;;;;;;;6248820;22;19919;-89
2023/06/08 01:59:17;;;;;;;;;;;;;;;;;;6248289;22;19915;-89
2023/06/08 02:01:42;;;;;;;;;;;;;;;;;;6249098;22;19921;-89
2023/06/08 02:04:08;;;;;;;;;;;;;;;;;;6248841;22;19957;-92
2023/06/08 02:06:35;;;;;;;;;;;;;;;;;;6250123;22;19931;-92
2023/06/08 02:09:01;;;;;;;;;;;;;;;;;;6250060;22;19989;-91
2023/06/08 02:11:27;;;;;;;;;;;;;;;;;;6249731;22;19958;-91
2023/06/08 02:13:53;;;;;;;;;;;;;;;;;;6249732;22;20291;-90
2023/06/08 02:16:20;;;;;;;;;;;;;;;;;;6249206;22;19959;-91
2023/06/08 02:18:46;;;;;;;;;;;;;;;;;;6274880;22;19915;-90
2023/06/08 02:21:12;;;;;;;;;;;;;;;;;;6249226;22;20299;-90
2023/06/08 02:23:38;;;;;;;;;;;;;;;;;;6248899;22;19923;-91
2023/06/08 02:26:04;;;;;;;;;;;;;;;;;;6249059;22;19916;-90
2023/06/08 02:28:30;;;;;;;;;;;;;;;;;;6247354;22;19915;-90
2023/06/08 02:30:56;;;;;;;;;;;;;;;;;;6193230;23;19927;-89
2023/06/08 02:33:22;;;;;;;;;;;;;;;;;;6193957;23;19926;-90
2023/06/08 02:35:48;;;;;;;;;;;;;;;;;;6218626;22;19916;-91
2023/06/08 02:38:14;;;;;;;;;;;;;;;;;;6193491;23;19915;-90
2023/06/08 02:40:41;;;;;;;;;;;;;;;;;;6195593;23;19922;-89
2023/06/08 02:43:08;;;;;;;;;;;;;;;;;;6195500;23;19919;-90
2023/06/08 02:45:34;;;;;;;;;;;;;;;;;;6221646;22;19973;-90
2023/06/08 02:48:00;;;;;;;;;;;;;;;;;;6219858;23;19986;-89
2023/06/08 02:50:26;;;;;;;;;;;;;;;;;;6193570;23;20021;-90
2023/06/08 02:52:52;;;;;;;;;;;;;;;;;;6193944;23;19939;-89
2023/06/08 02:55:18;;;;;;;;;;;;;;;;;;6219469;23;20319;-90
2023/06/08 02:57:47;;;;;;;;;;;;;;;;;;6193513;23;19929;-91
2023/06/08 03:00:13;;;;;;;;;;;;;;;;;;6218857;23;19915;-91
2023/06/08 03:02:39;;;;;;;;;;;;;;;;;;6193211;23;19966;-90
2023/06/08 03:05:05;;;;;;;;;;;;;;;;;;6193528;23;19958;-91
2023/06/08 03:07:33;;;;;;;;;;;;;;;;;;6192938;23;19916;-90
2023/06/08 03:09:59;;;;;;;;;;;;;;;;;;6192810;23;19942;-90
2023/06/08 03:12:25;;;;;;;;;;;;;;;;;;6193452;23;20326;-90
2023/06/08 03:14:50;;;;;;;;;;;;;;;;;;6193141;23;19915;-90
2023/06/08 03:17:17;;;;;;;;;;;;;;;;;;6192750;23;19963;-90
2023/06/08 03:19:43;;;;;;;;;;;;;;;;;;6192751;23;19916;-90
2023/06/08 03:22:09;;;;;;;;;;;;;;;;;;6192738;23;19919;-88
2023/06/08 03:24:35;;;;;;;;;;;;;;;;;;6191908;23;20330;-89
2023/06/08 03:27:01;;;;;;;;;;;;;;;;;;6193253;23;19915;-90
2023/06/08 03:29:27;;;;;;;;;;;;;;;;;;6207194;22;19986;-90
2023/06/08 03:31:52;;;;;;;;;;;;;;;;;;6223140;22;19984;-90
2023/06/08 03:34:18;;;;;;;;;;;;;;;;;;6248099;22;20341;-89
2023/06/08 03:36:44;;;;;;;;;;;;;;;;;;6222961;22;19950;-90
2023/06/08 03:39:11;;;;;;;;;;;;;;;;;;6222670;22;19915;-89
2023/06/08 03:41:37;;;;;;;;;;;;;;;;;;6223069;22;19923;-90
2023/06/08 03:44:03;;;;;;;;;;;;;;;;;;6222945;22;19997;-91
2023/06/08 03:46:28;;;;;;;;;;;;;;;;;;6250158;22;19986;-90
2023/06/08 03:48:54;;;;;;;;;;;;;;;;;;6224853;22;19915;-90
2023/06/08 03:51:23;;;;;;;;;;;;;;;;;;6249943;22;19996;-90
2023/06/08 03:53:52;;;;;;;;;;;;;;;;;;6249863;22;20084;-89
2023/06/08 03:56:18;;;;;;;;;;;;;;;;;;6223988;22;20441;-89
2023/06/08 03:58:44;;;;;;;;;;;;;;;;;;6249888;22;19915;-90
2023/06/08 04:01:10;;;;;;;;;;;;;;;;;;6224725;22;19915;-90
2023/06/08 04:03:36;;;;;;;;;;;;;;;;;;6224605;22;19919;-90
2023/06/08 04:06:02;;;;;;;;;;;;;;;;;;6224693;22;19915;-90
2023/06/08 04:08:31;;;;;;;;;;;;;;;;;;6224121;22;19922;-90
2023/06/08 04:10:57;;;;;;;;;;;;;;;;;;6224541;22;19981;-90
2023/06/08 04:13:25;;;;;;;;;;;;;;;;;;6249368;22;19923;-90
2023/06/08 04:15:51;;;;;;;;;;;;;;;;;;6224722;22;19919;-90
2023/06/08 04:18:17;;;;;;;;;;;;;;;;;;6224630;22;19915;-91
2023/06/08 04:20:42;;;;;;;;;;;;;;;;;;6225184;22;19915;-91
2023/06/08 04:23:10;;;;;;;;;;;;;;;;;;6250148;22;19934;-90
2023/06/08 04:25:36;;;;;;;;;;;;;;;;;;6224020;22;19915;-90
2023/06/08 04:28:02;;;;;;;;;;;;;;;;;;6249596;22;19941;-90
2023/06/08 04:30:28;;;;;;;;;;;;;;;;;;6244541;23;19939;-90
2023/06/08 04:32:55;;;;;;;;;;;;;;;;;;6219264;23;19994;-90
2023/06/08 04:35:21;;;;;;;;;;;;;;;;;;6219812;23;19919;-90
2023/06/08 04:37:47;;;;;;;;;;;;;;;;;;6213953;23;20253;-90
2023/06/08 04:40:13;;;;;;;;;;;;;;;;;;6214324;23;19991;-90
2023/06/08 04:42:40;;;;;;;;;;;;;;;;;;6218916;23;19926;-91
2023/06/08 04:45:08;;;;;;;;;;;;;;;;;;6220027;23;19915;-92
2023/06/08 04:47:35;;;;;;;;;;;;;;;;;;6244191;22;20357;-90
2023/06/08 04:50:01;;;;;;;;;;;;;;;;;;6219563;23;19923;-90
2023/06/08 04:52:27;;;;;;;;;;;;;;;;;;6243620;23;19916;-89
2023/06/08 04:54:53;;;;;;;;;;;;;;;;;;6218324;23;19927;-89
2023/06/08 04:57:21;;;;;;;;;;;;;;;;;;6218400;23;20361;-88
2023/06/08 04:59:47;;;;;;;;;;;;;;;;;;6219325;23;19982;-92
2023/06/08 05:02:13;;;;;;;;;;;;;;;;;;6218654;23;19915;-92
2023/06/08 05:07:26;;;;;;;;;;;;;;;;;;6223525;23;20235;-91
2023/06/08 05:09:52;;;;;;;;;;;;;;;;;;6220069;23;19926;-92
2023/06/08 05:12:18;;;;;;;;;;;;;;;;;;6243028;23;20296;-91
2023/06/08 05:14:44;;;;;;;;;;;;;;;;;;6243767;23;19925;-91
2023/06/08 05:17:10;;;;;;;;;;;;;;;;;;6218907;23;19915;-91
2023/06/08 05:19:36;;;;;;;;;;;;;;;;;;6243606;23;19916;-91
2023/06/08 05:22:02;;;;;;;;;;;;;;;;;;6218632;23;19961;-91
2023/06/08 05:24:28;;;;;;;;;;;;;;;;;;6244598;23;20369;-92
2023/06/08 05:26:54;;;;;;;;;;;;;;;;;;6244226;22;19916;-92
2023/06/08 05:29:20;;;;;;;;;;;;;;;;;;6232606;22;19927;-95
2023/06/08 05:31:46;;;;;;;;;;;;;;;;;;6228655;22;19999;-92
2023/06/08 05:34:12;;;;;;;;;;;;;;;;;;6224148;22;19994;-91
2023/06/08 05:36:38;;;;;;;;;;;;;;;;;;6226997;22;19915;-93
2023/06/08 05:39:04;;;;;;;;;;;;;;;;;;6226454;22;19930;-92
2023/06/08 05:41:30;;;;;;;;;;;;;;;;;;6227462;22;19922;-93
2023/06/08 05:43:56;;;;;;;;;;;;;;;;;;6224403;22;19916;-93
2023/06/08 05:46:22;;;;;;;;;;;;;;;;;;6223884;22;19922;-93
2023/06/08 05:48:51;;;;;;;;;;;;;;;;;;6226720;22;19915;-96
2023/06/08 05:51:20;;;;;;;;;;;;;;;;;;6225313;22;19965;-96
2023/06/08 05:53:49;;;;;;;;;;;;;;;;;;6225273;22;19922;-95
2023/06/08 05:56:15;;;;;;;;;;;;;;;;;;6226072;22;20049;-96
2023/06/08 05:58:44;;;;;;;;;;;;;;;;;;6250649;22;19915;-96
2023/06/08 06:01:10;;;;;;;;;;;;;;;;;;6228225;22;19915;-96
2023/06/08 06:03:36;;;;;;;;;;;;;;;;;;6224933;22;19950;-96
2023/06/08 06:06:02;;;;;;;;;;;;;;;;;;6225952;22;19978;-94
2023/06/08 06:08:27;;;;;;;;;;;;;;;;;;6227083;22;19931;-94
2023/06/08 06:10:54;;;;;;;;;;;;;;;;;;6224921;22;19926;-94
2023/06/08 06:13:21;;;;;;;;;;;;;;;;;;6224421;22;19942;-94
2023/06/08 06:15:47;;;;;;;;;;;;;;;;;;6224173;22;19950;-92
2023/06/08 06:18:13;;;;;;;;;;;;;;;;;;6223849;22;19985;-92
2023/06/08 06:20:39;;;;;;;;;;;;;;;;;;6223440;22;19919;-91
2023/06/08 06:23:05;;;;;;;;;;;;;;;;;;6223433;22;19986;-90
2023/06/08 06:25:33;;;;;;;;;;;;;;;;;;6223191;22;19918;-91
2023/06/08 06:27:59;;;;;;;;;;;;;;;;;;6223703;22;19926;-90
2023/06/08 06:30:26;;;;;;;;;;;;;;;;;;6218702;23;19990;-91
2023/06/08 06:33:01;;;;;;;;;;;;;;;;;;6232058;23;19920;-93
2023/06/08 06:35:27;;;;;;;;;;;;;;;;;;6198455;23;19919;-96
2023/06/08 06:37:54;;;;;;;;;;;;;;;;;;6294564;22;19967;-92
2023/06/08 06:40:20;;;;;;;;;;;;;;;;;;6337021;22;19925;-92
2023/06/08 06:42:48;;;;;;;;;;;;;;;;;;6336848;22;20232;-93
2023/06/08 06:45:14;;;;;;;;;;;;;;;;;;6337180;22;20128;-93
2023/06/08 06:47:45;;;;;;;;;;;;;;;;;;6337105;22;20449;-91
2023/06/08 06:50:11;;;;;;;;;;;;;;;;;;6310164;22;19914;-93
2023/06/08 06:52:37;;;;;;;;;;;;;;;;;;6311074;22;19922;-92
2023/06/08 06:55:06;;;;;;;;;;;;;;;;;;6338013;22;19934;-93
2023/06/08 06:57:32;;;;;;;;;;;;;;;;;;6336946;22;19915;-95
2023/06/08 06:59:58;;;;;;;;;;;;;;;;;;6310936;22;20215;-93
2023/06/08 07:02:28;;;;;;;;;;;;;;;;;;6310204;22;19914;-93
2023/06/08 07:04:54;;;;;;;;;;;;;;;;;;6310446;22;19956;-94
2023/06/08 07:13:22;;;;;;;;;;;;;;;;;;6337422;22;19914;-92
2023/06/08 07:15:48;;;;;;;;;;;;;;;;;;6310300;22;19922;-92
2023/06/08 07:18:14;;;;;;;;;;;;;;;;;;6310713;22;19914;-93
2023/06/08 07:20:40;;;;;;;;;;;;;;;;;;6313399;22;19926;-94
2023/06/08 07:23:06;;;;;;;;;;;;;;;;;;6313624;22;19915;-92
2023/06/08 07:25:32;;;;;;;;;;;;;;;;;;6312854;22;19972;-95
2023/06/08 07:27:58;;;;;;;;;;;;;;;;;;6316261;22;19915;-94
2023/06/08 07:30:26;;;;;;;;;;;;;;;;;;6313437;22;19999;-93
2023/06/08 07:32:52;;;;;;;;;;;;;;;;;;6313288;22;19919;-94
2023/06/08 07:35:18;;;;;;;;;;;;;;;;;;6313356;22;19922;-92
2023/06/08 07:37:45;;;;;;;;;;;;;;;;;;6310938;22;19919;-92
2023/06/08 07:40:11;;;;;;;;;;;;;;;;;;6311857;22;19964;-92
2023/06/08 07:42:37;;;;;;;;;;;;;;;;;;6312138;22;19967;-92
2023/06/08 07:45:03;;;;;;;;;;;;;;;;;;6312531;22;19989;-92
2023/06/08 07:47:29;;;;;;;;;;;;;;;;;;6313789;22;19915;-94
2023/06/08 07:49:56;;;;;;;;;;;;;;;;;;6313021;22;19914;-93
2023/06/08 07:52:22;;;;;;;;;;;;;;;;;;6313299;22;19945;-94
2023/06/08 07:54:48;;;;;;;;;;;;;;;;;;6313274;22;19930;-96
2023/06/08 07:57:14;;;;;;;;;;;;;;;;;;6312979;22;19938;-93
2023/06/08 07:59:40;;;;;;;;;;;;;;;;;;6311952;22;19922;-92
2023/06/08 08:02:08;;;;;;;;;;;;;;;;;;6311689;22;20393;-92
2023/06/08 08:04:34;;;;;;;;;;;;;;;;;;6312298;22;19914;-92
2023/06/08 08:07:01;;;;;;;;;;;;;;;;;;6337771;22;19929;-92
2023/06/08 08:09:27;;;;;;;;;;;;;;;;;;6312392;22;20299;-93
2023/06/08 08:11:53;;;;;;;;;;;;;;;;;;6312942;22;19997;-90
2023/06/08 08:14:19;;;;;;;;;;;;;;;;;;6313065;22;20216;-96
2023/06/08 08:16:45;;;;;;;;;;;;;;;;;;6315824;22;20331;-91
2023/06/08 08:19:11;;;;;;;;;;;;;;;;;;6313251;22;19921;-92
2023/06/08 08:21:40;;;;;;;;;;;;;;;;;;6315880;22;19938;-92
2023/06/08 08:24:09;;;;;;;;;;;;;;;;;;6341462;22;19914;-94
2023/06/08 08:26:35;;;;;;;;;;;;;;;;;;6315418;22;19914;-94
2023/06/08 08:29:03;;;;;;;;;;;;;;;;;;6315591;22;20317;-94
2023/06/08 08:31:29;;;;;;;;;;;;;;;;;;6313256;22;20001;-95
2023/06/08 08:33:55;;;;;;;;;;;;;;;;;;6312620;22;19914;-95
2023/06/08 08:36:21;;;;;;;;;;;;;;;;;;6314484;22;20002;-94
2023/06/08 08:38:47;;;;;;;;;;;;;;;;;;6314961;22;19925;-95
2023/06/08 08:41:13;;;;;;;;;;;;;;;;;;6313044;22;19914;-94
2023/06/08 08:43:42;;;;;;;;;;;;;;;;;;6314186;22;20327;-93
2023/06/08 08:46:08;;;;;;;;;;;;;;;;;;6311915;22;19915;-95
2023/06/08 08:48:35;;;;;;;;;;;;;;;;;;6312520;22;19914;-96
2023/06/08 08:51:00;;;;;;;;;;;;;;;;;;6312331;22;19926;-94
2023/06/08 08:53:30;;;;;;;;;;;;;;;;;;6312643;22;19968;-93
2023/06/08 08:55:57;;;;;;;;;;;;;;;;;;6311795;22;19957;-93
2023/06/08 08:58:23;;;;;;;;;;;;;;;;;;6312070;22;19915;-94
2023/06/08 09:00:49;;;;;;;;;;;;;;;;;;6312456;22;20204;-95
2023/06/08 09:03:15;;;;;;;;;;;;;;;;;;6312179;22;20251;-94
2023/06/08 09:05:43;;;;;;;;;;;;;;;;;;6311035;22;19923;-92
2023/06/08 09:08:09;;;;;;;;;;;;;;;;;;6311194;22;19921;-92
2023/06/08 09:10:35;;;;;;;;;;;;;;;;;;6312472;22;19914;-94
2023/06/08 09:13:01;;;;;;;;;;;;;;;;;;6312368;22;20267;-94
2023/06/08 09:15:27;;;;;;;;;;;;;;;;;;6338286;22;19942;-93
2023/06/08 09:17:53;;;;;;;;;;;;;;;;;;6338360;22;19922;-94
2023/06/08 09:20:19;;;;;;;;;;;;;;;;;;6312235;22;19915;-96
2023/06/08 09:22:45;;;;;;;;;;;;;;;;;;6312495;22;19990;-94
2023/06/08 09:25:11;;;;;;;;;;;;;;;;;;6312354;22;19915;-92
2023/06/08 09:27:37;;;;;;;;;;;;;;;;;;6311485;22;19921;-92
2023/06/08 09:30:03;;;;;;;;;;;;;;;;;;6311748;22;19921;-94
2023/06/08 09:32:29;;;;;;;;;;;;;;;;;;6311678;22;19919;-93
2023/06/08 09:34:55;;;;;;;;;;;;;;;;;;6311611;22;19915;-93
2023/06/08 09:37:21;;;;;;;;;;;;;;;;;;6312317;22;19925;-93
2023/06/08 09:39:47;;;;;;;;;;;;;;;;;;6312426;22;19915;-95
2023/06/08 09:42:15;;;;;;;;;;;;;;;;;;6312185;22;20068;-94
2023/06/08 09:44:41;;;;;;;;;;;;;;;;;;6311638;22;20350;-94
2023/06/08 09:47:07;;;;;;;;;;;;;;;;;;6311189;22;19954;-94
2023/06/08 09:49:32;;;;;;;;;;;;;;;;;;6311145;22;19953;-94
2023/06/08 09:51:58;;;;;;;;;;;;;;;;;;6312001;22;19918;-93
2023/06/08 09:54:24;;;;;;;;;;;;;;;;;;6312415;22;19954;-95
2023/06/08 09:56:57;;;;;;;;;;;;;;;;;;6315492;22;20005;-93
2023/06/08 09:59:23;;;;;;;;;;;;;;;;;;6313413;22;20335;-93
2023/06/08 10:01:49;;;;;;;;;;;;;;;;;;6311755;22;19981;-92
2023/06/08 10:04:15;;;;;;;;;;;;;;;;;;6336871;22;19914;-96
2023/06/08 10:06:41;;;;;;;;;;;;;;;;;;6311410;22;19960;-93
2023/06/08 10:09:07;;;;;;;;;;;;;;;;;;6310843;22;19914;-92
2023/06/08 10:11:33;;;;;;;;;;;;;;;;;;6337349;22;19997;-90
2023/06/08 10:13:59;;;;;;;;;;;;;;;;;;6337924;22;19994;-92
2023/06/08 10:16:25;;;;;;;;;;;;;;;;;;6309926;22;19989;-93
2023/06/08 10:18:51;;;;;;;;;;;;;;;;;;6311154;22;19919;-92
2023/06/08 10:21:17;;;;;;;;;;;;;;;;;;6310843;22;19914;-92
2023/06/08 10:23:43;;;;;;;;;;;;;;;;;;6311739;22;20238;-95
2023/06/08 10:26:09;;;;;;;;;;;;;;;;;;6312142;22;20278;-95
2023/06/08 10:28:38;;;;;;;;;;;;;;;;;;6312365;22;19925;-94
2023/06/08 10:31:04;;;;;;;;;;;;;;;;;;6337866;22;19926;-92
2023/06/08 10:33:30;;;;;;;;;;;;;;;;;;6311979;22;19918;-94
2023/06/08 10:35:56;;;;;;;;;;;;;;;;;;6311718;22;19914;-95
2023/06/08 10:38:23;;;;;;;;;;;;;;;;;;6311506;22;19986;-96
2023/06/08 10:40:50;;;;;;;;;;;;;;;;;;6311152;22;19975;-95
2023/06/08 10:43:17;;;;;;;;;;;;;;;;;;6312004;22;19937;-94
2023/06/08 10:45:43;;;;;;;;;;;;;;;;;;6311763;22;19956;-94
2023/06/08 10:48:09;;;;;;;;;;;;;;;;;;6312280;22;19915;-94
2023/06/08 10:50:37;;;;;;;;;;;;;;;;;;6311997;22;19921;-95
2023/06/08 10:53:03;;;;;;;;;;;;;;;;;;6312412;22;19922;-92
2023/06/08 10:55:29;;;;;;;;;;;;;;;;;;6312849;22;19915;-93
2023/06/08 10:58:02;;;;;;;;;;;;;;;;;;6347029;22;19907;-91
2023/06/08 11:00:29;;;;;;;;;;;;;;;;;;6334749;22;19902;-91
2023/06/08 11:02:55;;;;;;;;;;;;;;;;;;6329842;22;20268;-92
2023/06/08 11:05:22;;;;;;;;;;;;;;;;;;6354899;22;19914;-92
2023/06/08 11:07:48;;;;;;;;;;;;;;;;;;6328653;22;19915;-94
2023/06/08 11:10:14;;;;;;;;;;;;;;;;;;6327811;22;20243;-93
2023/06/08 11:12:40;;;;;;;;;;;;;;;;;;6328631;22;19933;-93
2023/06/08 11:15:07;;;;;;;;;;;;;;;;;;6325479;22;19915;-93
2023/06/08 11:17:38;;;;;;;;;;;;;;;;;;6344896;22;19954;-93
2023/06/08 11:20:07;;;;;;;;;;;;;;;;;;6325062;22;20071;-95
2023/06/08 11:22:33;;;;;;;;;;;;;;;;;;6328425;22;19922;-92
2023/06/08 11:24:59;;;;;;;;;;;;;;;;;;6329180;22;19954;-92
2023/06/08 11:27:27;;;;;;;;;;;;;;;;;;6325021;22;19971;-93
2023/06/08 11:29:53;;;;;;;;;;;;;;;;;;6319534;22;19914;-94
2023/06/08 11:32:20;;;;;;;;;;;;;;;;;;6315006;22;19946;-92
2023/06/08 11:34:49;;;;;;;;;;;;;;;;;;6313216;22;19922;-93
2023/06/08 11:37:15;;;;;;;;;;;;;;;;;;6316772;22;19922;-95
2023/06/08 11:39:41;;;;;;;;;;;;;;;;;;6317588;22;19914;-94
2023/06/08 11:42:07;;;;;;;;;;;;;;;;;;6317183;22;19925;-95
2023/06/08 11:44:33;;;;;;;;;;;;;;;;;;6317191;22;19921;-94
2023/06/08 11:46:59;;;;;;;;;;;;;;;;;;6317330;22;19921;-94
2023/06/08 11:49:25;;;;;;;;;;;;;;;;;;6316413;22;19914;-94
2023/06/08 11:51:50;;;;;;;;;;;;;;;;;;6316935;22;19997;-94
2023/06/08 11:54:16;;;;;;;;;;;;;;;;;;6316293;22;19914;-93
2023/06/08 11:56:45;;;;;;;;;;;;;;;;;;6316317;22;19914;-95
2023/06/08 11:59:11;;;;;;;;;;;;;;;;;;6316595;22;19914;-94
2023/06/08 12:01:40;;;;;;;;;;;;;;;;;;6317279;22;19980;-94
2023/06/08 12:04:06;;;;;;;;;;;;;;;;;;6316903;22;19924;-92
2023/06/08 12:06:32;;;;;;;;;;;;;;;;;;6318342;22;19914;-95
2023/06/08 12:09:05;;;;;;;;;;;;;;;;;;6345808;22;20325;-94
2023/06/08 12:11:32;;;;;;;;;;;;;;;;;;6319245;22;19971;-92
2023/06/08 12:13:58;;;;;;;;;;;;;;;;;;6318846;22;19914;-94
2023/06/08 12:16:24;;;;;;;;;;;;;;;;;;6318608;22;19959;-94
2023/06/08 12:18:50;;;;;;;;;;;;;;;;;;6318869;22;19914;-94
2023/06/08 12:21:18;;;;;;;;;;;;;;;;;;6319568;22;20051;-95
2023/06/08 12:23:44;;;;;;;;;;;;;;;;;;6320536;22;19993;-94
2023/06/08 12:26:10;;;;;;;;;;;;;;;;;;6319405;22;20324;-94
2023/06/08 12:28:37;;;;;;;;;;;;;;;;;;6319114;22;19914;-94
2023/06/08 12:31:03;;;;;;;;;;;;;;;;;;6318709;22;20244;-95
2023/06/08 12:33:29;;;;;;;;;;;;;;;;;;6318252;22;19921;-96
2023/06/08 12:35:54;;;;;;;;;;;;;;;;;;6319246;22;19921;-95
2023/06/08 12:38:20;;;;;;;;;;;;;;;;;;6312687;22;19930;-94
2023/06/08 12:40:52;;;;;;;;;;;;;;;;;;6312763;22;19964;-95
2023/06/08 12:43:18;;;;;;;;;;;;;;;;;;6313255;22;19918;-91
2023/06/08 12:45:44;;;;;;;;;;;;;;;;;;6313528;22;19915;-94
2023/06/08 12:48:10;;;;;;;;;;;;;;;;;;6312669;22;19918;-92
2023/06/08 12:50:38;;;;;;;;;;;;;;;;;;6339038;22;20347;-93
2023/06/08 12:53:04;;;;;;;;;;;;;;;;;;6313122;22;19962;-94
2023/06/08 12:55:30;;;;;;;;;;;;;;;;;;6312720;22;19918;-95
2023/06/08 12:57:56;;;;;;;;;;;;;;;;;;6312358;22;19946;-95
2023/06/08 13:00:22;;;;;;;;;;;;;;;;;;6313156;22;19914;-94
2023/06/08 13:02:48;;;;;;;;;;;;;;;;;;6314849;22;19918;-94
2023/06/08 13:05:14;;;;;;;;;;;;;;;;;;6312102;22;20284;-94
2023/06/08 13:07:40;;;;;;;;;;;;;;;;;;6315920;22;19918;-94
2023/06/08 13:10:06;;;;;;;;;;;;;;;;;;6321355;22;19922;-93
2023/06/08 13:12:32;;;;;;;;;;;;;;;;;;6320764;22;19942;-93
2023/06/08 13:15:04;;;;;;;;;;;;;;;;;;6316667;22;19930;-94
2023/06/08 13:17:30;;;;;;;;;;;;;;;;;;6314883;22;19941;-95
2023/06/08 13:19:56;;;;;;;;;;;;;;;;;;6321265;22;19914;-93
2023/06/08 13:22:23;;;;;;;;;;;;;;;;;;6317527;22;20316;-94
2023/06/08 13:24:49;;;;;;;;;;;;;;;;;;6315835;22;19914;-92
2023/06/08 13:27:15;;;;;;;;;;;;;;;;;;6316730;22;19915;-95
2023/06/08 13:29:47;;;;;;;;;;;;;;;;;;6342166;22;19946;-91
2023/06/08 13:32:13;;;;;;;;;;;;;;;;;;6318944;22;19987;-95
2023/06/08 13:34:39;;;;;;;;;;;;;;;;;;6318109;22;19914;-94
2023/06/08 13:37:06;;;;;;;;;;;;;;;;;;6325554;22;19960;-96
2023/06/08 13:39:32;;;;;;;;;;;;;;;;;;6324061;22;19914;-94
2023/06/08 13:41:58;;;;;;;;;;;;;;;;;;6322416;22;20000;-95
2023/06/08 13:44:25;;;;;;;;;;;;;;;;;;6320024;22;19922;-94
2023/06/08 13:46:51;;;;;;;;;;;;;;;;;;6318891;22;20378;-95
2023/06/08 13:49:17;;;;;;;;;;;;;;;;;;6317722;22;19915;-94
2023/06/08 13:51:43;;;;;;;;;;;;;;;;;;6317689;22;19918;-95
2023/06/08 13:54:09;;;;;;;;;;;;;;;;;;6343652;22;20039;-94
2023/06/08 13:56:35;;;;;;;;;;;;;;;;;;6318078;22;20312;-96
2023/06/08 13:59:01;;;;;;;;;;;;;;;;;;6316978;22;19914;-92
2023/06/08 14:01:27;;;;;;;;;;;;;;;;;;6317149;22;19914;-93
2023/06/08 14:03:53;;;;;;;;;;;;;;;;;;6317102;22;19914;-93
2023/06/08 14:06:20;;;;;;;;;;;;;;;;;;6316897;22;19914;-95
2023/06/08 14:08:46;;;;;;;;;;;;;;;;;;6317534;22;19961;-94
2023/06/08 14:11:11;;;;;;;;;;;;;;;;;;6316739;22;19918;-96
2023/06/08 14:13:40;;;;;;;;;;;;;;;;;;6344125;22;19941;-96
2023/06/08 14:16:12;;;;;;;;;;;;;;;;;;6316876;22;19918;-95
2023/06/08 14:18:41;;;;;;;;;;;;;;;;;;6317646;22;19972;-93
2023/06/08 14:21:07;;;;;;;;;;;;;;;;;;6317464;22;19915;-96
2023/06/08 14:23:33;;;;;;;;;;;;;;;;;;6316830;22;19967;-95
2023/06/08 14:26:00;;;;;;;;;;;;;;;;;;6317027;22;19919;-95
2023/06/08 14:28:25;;;;;;;;;;;;;;;;;;6343081;22;19914;-94
2023/06/08 14:30:51;;;;;;;;;;;;;;;;;;6342739;22;19929;-95
2023/06/08 14:33:19;;;;;;;;;;;;;;;;;;6317733;22;19914;-95
2023/06/08 14:35:45;;;;;;;;;;;;;;;;;;6317289;22;20205;-94
2023/06/08 14:38:12;;;;;;;;;;;;;;;;;;6311593;22;19929;-96
2023/06/08 14:40:38;;;;;;;;;;;;;;;;;;6339032;22;19914;-96
2023/06/08 14:43:04;;;;;;;;;;;;;;;;;;6337818;22;19982;-96
2023/06/08 14:45:30;;;;;;;;;;;;;;;;;;6338018;22;19960;-95
2023/06/08 14:47:59;;;;;;;;;;;;;;;;;;6312880;22;19915;-94
2023/06/08 14:50:25;;;;;;;;;;;;;;;;;;6311879;22;19985;-93
2023/06/08 14:52:51;;;;;;;;;;;;;;;;;;6311539;22;19918;-94
2023/06/08 14:55:17;;;;;;;;;;;;;;;;;;6311848;22;19957;-94
2023/06/08 14:57:43;;;;;;;;;;;;;;;;;;6311290;22;19915;-93
2023/06/08 15:00:09;;;;;;;;;;;;;;;;;;6311965;22;19914;-93
2023/06/08 15:02:35;;;;;;;;;;;;;;;;;;6313007;22;19963;-93
2023/06/08 15:05:01;;;;;;;;;;;;;;;;;;6314380;22;19921;-93
2023/06/08 15:07:27;;;;;;;;;;;;;;;;;;6311990;22;19996;-93
2023/06/08 15:09:53;;;;;;;;;;;;;;;;;;6312804;22;19919;-93
2023/06/08 15:12:20;;;;;;;;;;;;;;;;;;6312777;22;19919;-94
2023/06/08 15:14:46;;;;;;;;;;;;;;;;;;6312553;22;19950;-94
2023/06/08 15:17:12;;;;;;;;;;;;;;;;;;6337792;22;19921;-94
2023/06/08 15:19:38;;;;;;;;;;;;;;;;;;6312337;22;19914;-94
2023/06/08 15:22:04;;;;;;;;;;;;;;;;;;6312750;22;20156;-92
2023/06/08 15:24:30;;;;;;;;;;;;;;;;;;6312401;22;19998;-95
2023/06/08 15:26:56;;;;;;;;;;;;;;;;;;6312666;22;20241;-95
2023/06/08 15:29:22;;;;;;;;;;;;;;;;;;6311899;22;20058;-96
2023/06/08 15:31:48;;;;;;;;;;;;;;;;;;6311502;22;19919;-93
2023/06/08 15:34:14;;;;;;;;;;;;;;;;;;6312437;22;19914;-93
2023/06/08 15:36:40;;;;;;;;;;;;;;;;;;6311291;22;20263;-93
2023/06/08 15:39:06;;;;;;;;;;;;;;;;;;6312651;22;20251;-93
2023/06/08 15:41:32;;;;;;;;;;;;;;;;;;6313601;22;19915;-92
2023/06/08 15:43:58;;;;;;;;;;;;;;;;;;6315067;22;19919;-93
2023/06/08 15:46:24;;;;;;;;;;;;;;;;;;6313897;22;20302;-93
2023/06/08 15:48:56;;;;;;;;;;;;;;;;;;6340025;22;19915;-93
2023/06/08 15:51:22;;;;;;;;;;;;;;;;;;6313575;22;19918;-92
2023/06/08 15:53:48;;;;;;;;;;;;;;;;;;6314274;22;19915;-93
2023/06/08 15:56:14;;;;;;;;;;;;;;;;;;6314649;22;19918;-91
2023/06/08 15:58:40;;;;;;;;;;;;;;;;;;6313241;22;19972;-94
2023/06/08 16:01:06;;;;;;;;;;;;;;;;;;6313763;22;19921;-95
2023/06/08 16:03:32;;;;;;;;;;;;;;;;;;6313845;22;19920;-95
2023/06/08 16:05:59;;;;;;;;;;;;;;;;;;6313233;22;19914;-94
2023/06/08 16:08:25;;;;;;;;;;;;;;;;;;6313339;22;19914;-94
2023/06/08 16:10:52;;;;;;;;;;;;;;;;;;6313304;22;19926;-93
2023/06/08 16:13:18;;;;;;;;;;;;;;;;;;6312971;22;19921;-93
2023/06/08 16:15:44;;;;;;;;;;;;;;;;;;6313237;22;19981;-94
2023/06/08 16:18:10;;;;;;;;;;;;;;;;;;6313495;22;20212;-96
2023/06/08 16:20:36;;;;;;;;;;;;;;;;;;6313624;22;19915;-95
2023/06/08 16:23:02;;;;;;;;;;;;;;;;;;6313274;22;19922;-95
2023/06/08 16:25:28;;;;;;;;;;;;;;;;;;6313335;22;19999;-95
2023/06/08 16:27:54;;;;;;;;;;;;;;;;;;6313252;22;19921;-94
2023/06/08 16:30:27;;;;;;;;;;;;;;;;;;6313471;22;20427;-96
2023/06/08 16:32:53;;;;;;;;;;;;;;;;;;6312797;22;19922;-95
2023/06/08 16:35:19;;;;;;;;;;;;;;;;;;6313665;22;19985;-95
2023/06/08 16:37:45;;;;;;;;;;;;;;;;;;6312549;22;19942;-95
2023/06/08 16:40:11;;;;;;;;;;;;;;;;;;6313331;22;19915;-94
2023/06/08 16:42:39;;;;;;;;;;;;;;;;;;6313047;22;19994;-96
2023/06/08 16:45:06;;;;;;;;;;;;;;;;;;6313236;22;19914;-95
2023/06/08 16:47:32;;;;;;;;;;;;;;;;;;6312621;22;19922;-95
2023/06/08 16:49:58;;;;;;;;;;;;;;;;;;6312519;22;19915;-95